createdAt,value
2017-12-16T00:00:19.365Z,2.20
2017-12-16T00:02:48.668Z,2.08
2017-12-16T00:05:17.764Z,2.08
2017-12-16T00:07:46.873Z,2.27
2017-12-16T00:10:16.004Z,2.22
2017-12-16T00:12:44.343Z,2.24
2017-12-16T00:15:13.622Z,2.24
2017-12-16T00:17:41.973Z,2.15
2017-12-16T00:20:10.392Z,2.23
2017-12-16T00:22:39.470Z,2.15
2017-12-16T00:25:07.841Z,2.07
2017-12-16T00:27:36.168Z,2.03
2017-12-16T00:30:04.508Z,2.10
2017-12-16T00:32:32.856Z,2.15
2017-12-16T00:35:01.186Z,2.13
2017-12-16T00:37:29.516Z,2.10
2017-12-16T00:39:57.874Z,2.20
2017-12-16T00:42:26.257Z,2.25
2017-12-16T00:44:54.556Z,2.24
2017-12-16T00:47:22.914Z,2.22
2017-12-16T00:49:51.223Z,2.29
2017-12-16T00:52:19.634Z,2.36
2017-12-16T00:54:48.009Z,2.38
2017-12-16T00:57:16.411Z,2.33
2017-12-16T00:59:44.724Z,2.26
2017-12-16T01:02:13.076Z,2.36
2017-12-16T01:04:41.435Z,2.30
2017-12-16T01:07:09.757Z,2.27
2017-12-16T01:09:38.118Z,2.15
2017-12-16T01:12:06.531Z,2.10
2017-12-16T01:14:34.888Z,2.16
2017-12-16T01:17:03.225Z,2.24
2017-12-16T01:19:31.557Z,2.28
2017-12-16T01:22:00.692Z,2.29
2017-12-16T01:24:29.137Z,2.23
2017-12-16T01:26:58.264Z,2.15
2017-12-16T01:29:26.642Z,2.16
2017-12-16T01:31:54.976Z,2.26
2017-12-16T01:34:41.180Z,2.34
2017-12-16T01:37:27.190Z,2.29
2017-12-16T01:39:56.469Z,2.13
2017-12-16T01:42:24.797Z,2.11
2017-12-16T01:44:53.132Z,2.18
2017-12-16T01:47:22.244Z,2.09
2017-12-16T01:49:50.565Z,2.09
2017-12-16T01:52:18.909Z,2.05
2017-12-16T01:54:47.304Z,2.05
2017-12-16T01:57:15.645Z,2.17
2017-12-16T01:59:44.769Z,2.14
2017-12-16T02:02:13.080Z,2.10
2017-12-16T02:04:41.556Z,2.13
2017-12-16T02:07:09.942Z,2.14
2017-12-16T02:09:38.285Z,2.22
2017-12-16T02:12:06.599Z,2.17
2017-12-16T02:14:34.953Z,2.07
2017-12-16T02:17:03.292Z,2.15
2017-12-16T02:19:31.655Z,2.25
2017-12-16T02:22:00.828Z,2.22
2017-12-16T02:24:29.152Z,2.24
2017-12-16T02:26:57.554Z,2.28
2017-12-16T02:29:25.941Z,2.25
2017-12-16T02:31:54.327Z,2.20
2017-12-16T02:34:22.647Z,2.18
2017-12-16T02:36:51.769Z,2.23
2017-12-16T02:39:20.108Z,2.30
2017-12-16T02:41:49.213Z,2.05
2017-12-16T02:44:18.300Z,2.03
2017-12-16T02:46:47.388Z,2.00
2017-12-16T02:49:15.749Z,2.01
2017-12-16T02:51:44.070Z,1.93
2017-12-16T02:54:12.385Z,2.01
2017-12-16T02:56:40.719Z,2.12
2017-12-16T02:59:09.894Z,2.20
2017-12-16T03:01:39.091Z,2.28
2017-12-16T03:04:07.461Z,2.27
2017-12-16T03:06:35.768Z,2.24
2017-12-16T03:09:04.880Z,2.35
2017-12-16T03:11:33.244Z,2.30
2017-12-16T03:14:01.620Z,2.33
2017-12-16T03:16:30.180Z,2.29
2017-12-16T03:18:58.524Z,2.35
2017-12-16T03:21:26.856Z,2.35
2017-12-16T03:23:55.229Z,2.36
2017-12-16T03:26:24.345Z,2.20
2017-12-16T03:28:52.780Z,2.28
2017-12-16T03:31:21.109Z,2.22
2017-12-16T03:33:49.447Z,2.22
2017-12-16T03:36:17.832Z,2.25
2017-12-16T03:38:46.912Z,2.27
2017-12-16T03:41:15.240Z,2.36
2017-12-16T03:43:43.567Z,2.51
2017-12-16T03:46:12.690Z,2.51
2017-12-16T03:48:41.020Z,2.53
2017-12-16T03:51:09.580Z,2.64
2017-12-16T03:53:37.919Z,2.62
2017-12-16T03:56:06.280Z,2.63
2017-12-16T03:58:34.605Z,2.63
2017-12-16T04:01:02.951Z,2.64
2017-12-16T04:03:32.055Z,2.54
2017-12-16T04:06:00.412Z,2.60
2017-12-16T04:08:29.523Z,2.69
2017-12-16T04:10:57.831Z,2.69
2017-12-16T04:13:26.156Z,2.53
2017-12-16T04:15:54.497Z,2.47
2017-12-16T04:18:22.828Z,2.54
2017-12-16T04:20:51.932Z,2.44
2017-12-16T04:23:20.281Z,2.45
2017-12-16T04:25:48.605Z,2.42
2017-12-16T04:28:16.943Z,2.52
2017-12-16T04:30:46.170Z,2.54
2017-12-16T04:33:14.496Z,2.38
2017-12-16T04:35:42.863Z,2.11
2017-12-16T04:38:11.184Z,1.98
2017-12-16T04:40:39.512Z,1.95
2017-12-16T04:43:07.888Z,2.02
2017-12-16T04:45:36.212Z,1.98
2017-12-16T04:48:05.305Z,2.10
2017-12-16T04:50:34.431Z,1.99
2017-12-16T04:53:02.769Z,1.99
2017-12-16T04:55:31.860Z,2.06
2017-12-16T04:58:00.981Z,2.05
2017-12-16T05:00:29.316Z,2.09
2017-12-16T05:02:57.704Z,2.18
2017-12-16T05:05:26.061Z,2.26
2017-12-16T05:07:54.382Z,2.15
2017-12-16T05:10:23.556Z,2.24
2017-12-16T05:12:51.959Z,2.21
2017-12-16T05:15:21.092Z,2.18
2017-12-16T05:17:49.413Z,2.21
2017-12-16T05:20:18.524Z,2.25
2017-12-16T05:22:47.639Z,2.24
2017-12-16T05:25:15.960Z,2.32
2017-12-16T05:27:44.367Z,2.42
2017-12-16T05:30:13.448Z,2.50
2017-12-16T05:32:42.535Z,2.56
2017-12-16T05:35:10.886Z,2.51
2017-12-16T05:37:39.203Z,2.46
2017-12-16T05:40:08.300Z,2.35
2017-12-16T05:42:37.414Z,2.25
2017-12-16T05:45:05.747Z,2.24
2017-12-16T05:47:34.094Z,2.30
2017-12-16T05:50:02.539Z,2.43
2017-12-16T05:52:31.730Z,2.46
2017-12-16T05:55:00.815Z,2.32
2017-12-16T05:57:29.171Z,2.18
2017-12-16T05:59:57.596Z,2.08
2017-12-16T06:02:26.680Z,2.02
2017-12-16T06:04:55.792Z,1.93
2017-12-16T06:07:24.139Z,1.83
2017-12-16T06:09:52.557Z,1.77
2017-12-16T06:12:20.952Z,1.70
2017-12-16T06:14:49.282Z,1.72
2017-12-16T06:17:18.420Z,1.68
2017-12-16T06:19:46.767Z,1.65
2017-12-16T06:22:15.864Z,1.59
2017-12-16T06:24:44.344Z,1.56
2017-12-16T06:27:13.517Z,1.64
2017-12-16T06:29:42.616Z,1.74
2017-12-16T06:32:10.948Z,1.86
2017-12-16T06:34:39.345Z,1.98
2017-12-16T06:37:07.663Z,2.08
2017-12-16T06:39:35.988Z,2.15
2017-12-16T06:42:04.352Z,2.30
2017-12-16T06:44:32.677Z,2.29
2017-12-16T06:47:01.028Z,2.33
2017-12-16T06:49:29.385Z,2.31
2017-12-16T06:51:57.716Z,2.30
2017-12-16T06:54:26.816Z,2.27
2017-12-16T06:56:55.932Z,2.26
2017-12-16T06:59:24.252Z,2.21
2017-12-16T07:01:52.586Z,2.33
2017-12-16T07:04:20.946Z,2.36
2017-12-16T07:06:50.034Z,2.37
2017-12-16T07:09:19.156Z,2.39
2017-12-16T07:11:47.523Z,2.35
2017-12-16T07:14:16.620Z,2.17
2017-12-16T07:16:45.738Z,2.12
2017-12-16T07:19:14.095Z,2.01
2017-12-16T07:21:42.455Z,2.00
2017-12-16T07:24:10.773Z,1.98
2017-12-16T07:26:39.109Z,1.91
2017-12-16T07:29:07.440Z,1.91
2017-12-16T07:31:35.816Z,1.87
2017-12-16T07:34:04.140Z,1.91
2017-12-16T07:36:33.247Z,1.91
2017-12-16T07:39:02.363Z,1.93
2017-12-16T07:41:30.704Z,1.93
2017-12-16T07:43:59.036Z,1.97
2017-12-16T07:46:27.467Z,1.99
2017-12-16T07:48:56.565Z,2.04
2017-12-16T07:51:25.746Z,2.14
2017-12-16T07:53:54.101Z,2.31
2017-12-16T07:56:22.431Z,2.49
2017-12-16T07:58:50.755Z,2.65
2017-12-16T08:01:19.120Z,2.78
2017-12-16T08:03:47.435Z,2.93
2017-12-16T08:06:15.771Z,3.04
2017-12-16T08:08:44.154Z,3.06
2017-12-16T08:11:13.292Z,3.22
2017-12-16T08:13:41.685Z,3.13
2017-12-16T08:16:10.846Z,3.07
2017-12-16T08:18:39.176Z,3.21
2017-12-16T08:21:07.540Z,3.25
2017-12-16T08:23:35.865Z,3.31
2017-12-16T08:26:04.255Z,3.38
2017-12-16T08:28:32.655Z,3.27
2017-12-16T08:31:02.328Z,3.36
2017-12-16T08:33:30.747Z,3.19
2017-12-16T08:35:59.071Z,3.28
2017-12-16T08:38:27.396Z,3.36
2017-12-16T08:40:55.735Z,3.58
2017-12-16T08:43:24.057Z,3.68
2017-12-16T08:45:53.157Z,4.13
2017-12-16T08:48:22.326Z,4.08
2017-12-16T08:50:50.645Z,3.65
2017-12-16T08:53:18.968Z,3.54
2017-12-16T08:55:47.346Z,3.58
2017-12-16T08:58:15.685Z,3.53
2017-12-16T09:00:44.008Z,3.75
2017-12-16T09:03:12.396Z,3.85
2017-12-16T09:05:40.724Z,3.75
2017-12-16T09:08:09.212Z,3.61
2017-12-16T09:10:37.616Z,3.65
2017-12-16T09:13:05.953Z,3.71
2017-12-16T09:15:35.445Z,3.77
2017-12-16T09:18:03.815Z,3.86
2017-12-16T09:20:32.911Z,3.64
2017-12-16T09:23:02.263Z,3.58
2017-12-16T09:25:31.461Z,3.71
2017-12-16T09:27:59.783Z,3.56
2017-12-16T09:30:28.906Z,3.73
2017-12-16T09:32:57.408Z,3.64
2017-12-16T09:35:25.727Z,3.86
2017-12-16T09:37:54.059Z,3.95
2017-12-16T09:40:22.432Z,4.03
2017-12-16T09:42:50.869Z,4.13
2017-12-16T09:45:19.972Z,4.09
2017-12-16T09:47:48.299Z,4.04
2017-12-16T09:50:16.665Z,3.98
2017-12-16T09:52:44.977Z,3.94
2017-12-16T09:55:14.076Z,3.97
2017-12-16T09:57:43.954Z,3.76
2017-12-16T10:00:12.311Z,3.77
2017-12-16T10:02:40.878Z,3.98
2017-12-16T10:05:09.294Z,4.68
2017-12-16T10:07:37.625Z,4.01
2017-12-16T10:10:06.709Z,3.88
2017-12-16T10:12:35.815Z,3.85
2017-12-16T10:15:04.915Z,3.82
2017-12-16T10:17:34.019Z,3.74
2017-12-16T10:20:02.376Z,3.71
2017-12-16T10:22:31.488Z,3.61
2017-12-16T10:25:00.595Z,3.50
2017-12-16T10:27:28.928Z,3.54
2017-12-16T10:29:57.277Z,3.53
2017-12-16T10:32:25.620Z,3.45
2017-12-16T10:34:53.937Z,3.62
2017-12-16T10:37:22.298Z,3.68
2017-12-16T10:39:50.675Z,3.79
2017-12-16T10:42:19.040Z,3.97
2017-12-16T10:44:47.481Z,4.08
2017-12-16T10:47:16.648Z,4.10
2017-12-16T10:49:44.998Z,4.31
2017-12-16T10:52:13.345Z,4.57
2017-12-16T10:54:42.456Z,4.52
2017-12-16T10:57:10.806Z,4.33
2017-12-16T10:59:39.934Z,4.31
2017-12-16T11:02:08.268Z,4.61
2017-12-16T11:04:36.841Z,4.61
2017-12-16T11:07:05.228Z,4.64
2017-12-16T11:09:33.651Z,4.61
2017-12-16T11:12:02.063Z,4.49
2017-12-16T11:14:30.423Z,4.79
2017-12-16T11:16:58.757Z,4.60
2017-12-16T11:19:27.895Z,4.46
2017-12-16T11:21:56.224Z,4.31
2017-12-16T11:24:25.315Z,4.44
2017-12-16T11:26:53.676Z,4.51
2017-12-16T11:29:22.017Z,4.70
2017-12-16T11:31:50.352Z,4.87
2017-12-16T11:34:19.456Z,4.77
2017-12-16T11:36:48.557Z,4.83
2017-12-16T11:39:16.926Z,4.70
2017-12-16T11:41:46.020Z,4.71
2017-12-16T11:44:15.140Z,4.81
2017-12-16T11:46:43.616Z,4.91
2017-12-16T11:49:11.959Z,5.20
2017-12-16T11:51:41.053Z,5.10
2017-12-16T11:54:09.428Z,5.23
2017-12-16T11:56:38.537Z,5.30
2017-12-16T11:59:07.648Z,5.24
2017-12-16T12:01:36.753Z,5.12
2017-12-16T12:04:05.118Z,5.05
2017-12-16T12:06:34.233Z,5.17
2017-12-16T12:09:02.588Z,5.10
2017-12-16T12:11:31.692Z,4.90
2017-12-16T12:14:00.851Z,4.90
2017-12-16T12:16:29.259Z,4.89
2017-12-16T12:18:58.344Z,5.04
2017-12-16T12:21:27.513Z,5.04
2017-12-16T12:23:55.883Z,5.03
2017-12-16T12:26:24.215Z,4.94
2017-12-16T12:28:53.319Z,5.13
2017-12-16T12:31:21.689Z,5.25
2017-12-16T12:33:50.013Z,4.92
2017-12-16T12:36:18.394Z,5.10
2017-12-16T12:38:46.721Z,4.97
2017-12-16T12:41:15.103Z,4.92
2017-12-16T12:43:43.465Z,4.93
2017-12-16T12:46:12.560Z,5.07
2017-12-16T12:48:41.692Z,5.18
2017-12-16T12:51:10.048Z,5.06
2017-12-16T12:53:38.405Z,4.95
2017-12-16T12:56:07.503Z,4.79
2017-12-16T12:58:36.614Z,4.86
2017-12-16T13:01:05.740Z,4.89
2017-12-16T13:03:34.072Z,4.87
2017-12-16T13:06:03.192Z,4.91
2017-12-16T13:08:31.511Z,5.04
2017-12-16T13:10:59.832Z,5.09
2017-12-16T13:13:28.197Z,5.04
2017-12-16T13:15:57.307Z,5.20
2017-12-16T13:18:25.645Z,5.09
2017-12-16T13:20:53.984Z,5.12
2017-12-16T13:23:22.304Z,5.06
2017-12-16T13:25:50.666Z,4.95
2017-12-16T13:28:19.021Z,4.75
2017-12-16T13:30:47.365Z,4.77
2017-12-16T13:33:15.861Z,4.68
2017-12-16T13:35:44.197Z,4.63
2017-12-16T13:38:12.521Z,4.79
2017-12-16T13:40:40.885Z,4.85
2017-12-16T13:43:09.254Z,4.90
2017-12-16T13:45:38.381Z,4.88
2017-12-16T13:48:06.736Z,4.95
2017-12-16T13:50:35.491Z,4.86
2017-12-16T13:53:03.864Z,4.83
2017-12-16T13:55:32.256Z,4.79
2017-12-16T13:58:00.944Z,4.75
2017-12-16T14:00:30.113Z,4.67
2017-12-16T14:02:58.542Z,4.73
2017-12-16T14:05:26.900Z,4.58
2017-12-16T14:07:55.427Z,4.56
2017-12-16T14:10:23.864Z,4.53
2017-12-16T14:12:52.993Z,4.56
2017-12-16T14:15:21.817Z,4.53
2017-12-16T14:17:50.200Z,4.53
2017-12-16T14:20:18.578Z,4.47
2017-12-16T14:22:46.945Z,4.46
2017-12-16T14:25:16.712Z,4.46
2017-12-16T14:27:45.114Z,4.45
2017-12-16T14:30:13.436Z,4.34
2017-12-16T14:32:41.821Z,4.28
2017-12-16T14:35:10.939Z,4.28
2017-12-16T14:37:39.260Z,4.26
2017-12-16T14:40:07.640Z,4.10
2017-12-16T14:42:35.984Z,4.13
2017-12-16T14:45:04.312Z,4.16
2017-12-16T14:47:32.685Z,4.22
2017-12-16T14:50:01.016Z,4.24
2017-12-16T14:52:29.361Z,4.26
2017-12-16T14:54:57.733Z,4.24
2017-12-16T14:57:26.061Z,4.28
2017-12-16T14:59:54.389Z,4.28
2017-12-16T15:02:22.797Z,4.25
2017-12-16T15:04:51.136Z,4.23
2017-12-16T15:07:19.470Z,4.21
2017-12-16T15:09:48.641Z,4.32
2017-12-16T15:12:18.489Z,4.31
2017-12-16T15:14:46.819Z,4.31
2017-12-16T15:17:15.928Z,4.28
2017-12-16T15:19:44.268Z,4.33
2017-12-16T15:22:12.644Z,4.35
2017-12-16T15:24:41.009Z,4.35
2017-12-16T15:27:09.338Z,4.31
2017-12-16T15:29:37.715Z,4.29
2017-12-16T15:32:06.072Z,4.31
2017-12-16T15:34:35.180Z,4.28
2017-12-16T15:37:04.480Z,4.30
2017-12-16T15:39:33.597Z,4.31
2017-12-16T15:42:01.928Z,4.29
2017-12-16T15:44:30.276Z,4.23
2017-12-16T15:46:58.648Z,4.26
2017-12-16T15:49:26.985Z,4.30
2017-12-16T15:51:57.035Z,4.37
2017-12-16T15:54:25.408Z,4.30
2017-12-16T15:56:53.792Z,4.27
2017-12-16T15:59:22.296Z,4.27
2017-12-16T16:01:50.724Z,4.27
2017-12-16T16:04:19.114Z,4.24
2017-12-16T16:06:47.511Z,4.13
2017-12-16T16:09:15.860Z,4.08
2017-12-16T16:11:44.257Z,4.19
2017-12-16T16:14:12.754Z,4.15
2017-12-16T16:16:41.095Z,4.20
2017-12-16T16:19:09.433Z,4.15
2017-12-16T16:21:37.782Z,4.14
2017-12-16T16:24:06.118Z,4.08
2017-12-16T16:26:35.371Z,4.09
2017-12-16T16:29:03.762Z,4.09
2017-12-16T16:31:32.090Z,4.15
2017-12-16T16:34:00.410Z,4.11
2017-12-16T16:36:28.803Z,4.12
2017-12-16T16:38:57.165Z,4.15
2017-12-16T16:41:25.516Z,4.23
2017-12-16T16:43:53.867Z,4.54
2017-12-16T16:46:22.239Z,4.25
2017-12-16T16:48:51.339Z,4.10
2017-12-16T16:51:19.757Z,4.03
2017-12-16T16:53:48.089Z,4.01
2017-12-16T16:56:17.175Z,4.04
2017-12-16T16:58:46.315Z,4.09
2017-12-16T17:01:14.640Z,4.12
2017-12-16T17:03:42.987Z,4.01
2017-12-16T17:06:11.396Z,3.85
2017-12-16T17:08:39.735Z,3.74
2017-12-16T17:11:08.072Z,3.71
2017-12-16T17:13:36.445Z,3.72
2017-12-16T17:16:05.539Z,3.74
2017-12-16T17:18:34.697Z,3.78
2017-12-16T17:21:03.052Z,3.86
2017-12-16T17:23:31.384Z,3.89
2017-12-16T17:26:00.475Z,3.82
2017-12-16T17:28:29.601Z,3.85
2017-12-16T17:30:57.927Z,3.86
2017-12-16T17:33:26.245Z,3.86
2017-12-16T17:35:54.604Z,3.75
2017-12-16T17:38:23.733Z,3.85
2017-12-16T17:40:52.067Z,3.80
2017-12-16T17:43:21.191Z,3.84
2017-12-16T17:45:50.294Z,3.84
2017-12-16T17:48:18.677Z,3.83
2017-12-16T17:50:47.020Z,3.82
2017-12-16T17:53:15.359Z,3.79
2017-12-16T17:55:43.788Z,3.79
2017-12-16T17:58:12.896Z,3.69
2017-12-16T18:00:41.250Z,3.75
2017-12-16T18:03:09.655Z,3.74
2017-12-16T18:05:38.764Z,3.74
2017-12-16T18:08:07.103Z,3.65
2017-12-16T18:10:36.204Z,3.66
2017-12-16T18:13:05.347Z,3.62
2017-12-16T18:15:33.709Z,3.60
2017-12-16T18:18:02.048Z,3.71
2017-12-16T18:20:30.382Z,3.75
2017-12-16T18:22:58.768Z,3.75
2017-12-16T18:25:27.116Z,3.77
2017-12-16T18:27:55.450Z,3.80
2017-12-16T18:30:24.587Z,3.77
2017-12-16T18:32:52.946Z,3.80
2017-12-16T18:35:22.068Z,3.79
2017-12-16T18:37:50.498Z,3.89
2017-12-16T18:40:19.667Z,3.75
2017-12-16T18:42:48.007Z,3.74
2017-12-16T18:45:16.385Z,3.78
2017-12-16T18:47:44.708Z,3.77
2017-12-16T18:50:13.068Z,3.73
2017-12-16T18:52:41.418Z,3.71
2017-12-16T18:55:09.792Z,3.75
2017-12-16T18:57:38.124Z,3.75
2017-12-16T19:00:07.244Z,3.79
2017-12-16T19:02:36.341Z,3.79
2017-12-16T19:05:05.527Z,3.82
2017-12-16T19:07:33.892Z,3.79
2017-12-16T19:10:02.310Z,3.74
2017-12-16T19:12:30.749Z,3.74
2017-12-16T19:14:59.074Z,3.75
2017-12-16T19:17:28.039Z,3.65
2017-12-16T19:19:56.476Z,3.72
2017-12-16T19:22:25.587Z,3.74
2017-12-16T19:24:53.924Z,3.80
2017-12-16T19:27:22.300Z,3.83
2017-12-16T19:29:50.652Z,3.84
2017-12-16T19:32:19.760Z,3.86
2017-12-16T19:34:48.896Z,3.82
2017-12-16T19:37:17.226Z,3.87
2017-12-16T19:39:46.324Z,3.79
2017-12-16T19:42:15.445Z,3.77
2017-12-16T19:44:43.792Z,3.72
2017-12-16T19:47:12.917Z,3.64
2017-12-16T19:49:41.555Z,3.62
2017-12-16T19:52:09.892Z,3.61
2017-12-16T19:54:38.228Z,3.62
2017-12-16T19:57:07.371Z,3.63
2017-12-16T19:59:36.457Z,3.73
2017-12-16T20:02:04.788Z,3.79
2017-12-16T20:04:33.922Z,3.79
2017-12-16T20:07:02.262Z,3.78
2017-12-16T20:09:31.362Z,3.82
2017-12-16T20:11:59.733Z,3.83
2017-12-16T20:14:28.862Z,3.75
2017-12-16T20:16:57.180Z,3.72
2017-12-16T20:19:25.556Z,3.62
2017-12-16T20:21:53.885Z,3.64
2017-12-16T20:24:22.209Z,3.66
2017-12-16T20:26:50.564Z,3.62
2017-12-16T20:29:18.900Z,3.54
2017-12-16T20:31:48.013Z,3.49
2017-12-16T20:34:16.354Z,3.45
2017-12-16T20:36:44.765Z,3.55
2017-12-16T20:39:13.162Z,3.67
2017-12-16T20:41:41.547Z,3.64
2017-12-16T20:46:44.566Z,3.76
2017-12-16T20:49:12.923Z,3.77
2017-12-16T20:51:42.159Z,3.82
2017-12-16T20:54:10.585Z,3.74
2017-12-16T20:56:38.932Z,3.75
2017-12-16T20:59:07.285Z,3.73
2017-12-16T21:01:35.763Z,3.66
2017-12-16T21:04:04.139Z,3.66
2017-12-16T21:06:32.473Z,3.67
2017-12-16T21:09:00.841Z,3.66
2017-12-16T21:11:30.300Z,3.68
2017-12-16T21:13:58.759Z,3.56
2017-12-16T21:16:27.140Z,3.59
2017-12-16T21:18:55.493Z,3.54
2017-12-16T21:21:23.846Z,3.63
2017-12-16T21:23:52.997Z,3.67
2017-12-16T21:26:21.353Z,3.64
2017-12-16T21:28:49.711Z,3.69
2017-12-16T21:31:19.113Z,3.77
2017-12-16T21:33:47.459Z,3.74
2017-12-16T21:36:16.575Z,3.77
2017-12-16T21:38:45.772Z,3.78
2017-12-16T21:41:14.186Z,3.77
2017-12-16T21:43:42.564Z,3.80
2017-12-16T21:46:10.970Z,3.82
2017-12-16T21:48:39.357Z,3.80
2017-12-16T21:51:07.779Z,3.79
2017-12-16T21:53:36.866Z,3.81
2017-12-16T21:56:05.980Z,3.87
2017-12-16T21:58:34.319Z,3.81
2017-12-16T22:01:02.656Z,3.78
2017-12-16T22:03:31.026Z,3.82
2017-12-16T22:05:59.359Z,3.80
2017-12-16T22:08:27.754Z,3.72
2017-12-16T22:10:56.885Z,3.79
2017-12-16T22:13:25.230Z,3.71
2017-12-16T22:15:53.595Z,3.73
2017-12-16T22:18:21.962Z,3.62
2017-12-16T22:20:50.293Z,3.70
2017-12-16T22:23:18.611Z,3.73
2017-12-16T22:25:46.974Z,3.75
2017-12-16T22:28:15.338Z,3.79
2017-12-16T22:30:43.678Z,3.83
2017-12-16T22:33:12.155Z,3.91
2017-12-16T22:35:40.511Z,3.98
2017-12-16T22:38:09.728Z,3.97
2017-12-16T22:40:38.048Z,3.96
2017-12-16T22:43:06.507Z,3.86
2017-12-16T22:45:34.927Z,3.88
2017-12-16T22:48:03.261Z,3.78
2017-12-16T22:50:31.742Z,3.75
2017-12-16T22:53:00.116Z,3.68
2017-12-16T22:55:28.450Z,3.72
2017-12-16T22:57:56.772Z,3.74
2017-12-16T23:00:25.136Z,3.80
2017-12-16T23:02:53.506Z,3.78
2017-12-16T23:05:21.808Z,3.72
2017-12-16T23:07:50.208Z,3.70
2017-12-16T23:10:18.560Z,3.68
2017-12-16T23:12:46.896Z,3.70
2017-12-16T23:15:16.051Z,3.72
2017-12-16T23:17:44.461Z,3.72
2017-12-16T23:20:12.791Z,3.78
2017-12-16T23:22:41.163Z,3.72
2017-12-16T23:25:09.479Z,3.78
2017-12-16T23:27:37.812Z,3.81
2017-12-16T23:30:06.184Z,3.85
2017-12-16T23:32:34.552Z,3.82
2017-12-16T23:35:03.675Z,3.81
2017-12-16T23:37:32.061Z,3.73
2017-12-16T23:40:00.435Z,3.78
2017-12-16T23:42:28.813Z,3.83
2017-12-16T23:44:57.213Z,3.81
2017-12-16T23:47:25.567Z,3.86
2017-12-16T23:49:53.892Z,3.81
2017-12-16T23:52:22.273Z,3.76
2017-12-16T23:54:50.617Z,3.76
2017-12-16T23:57:18.958Z,3.84
2017-12-16T23:59:47.306Z,3.82
